sensor_id;sensor_type;location;lat;lon;timestamp;pressure;altitude;pressure_sealevel;temperature;humidity
63399;BME280;49533;-34.520;150.798;2023-06-14T00:01:21;100161.75;;;16.56;42.75
63399;BME280;49533;-34.520;150.798;2023-06-14T00:03:48;100077.97;;;16.07;42.80
63399;BME280;49533;-34.520;150.798;2023-06-14T00:06:15;100130.31;;;16.34;43.03
63399;BME280;49533;-34.520;150.798;2023-06-14T00:08:44;100129.31;;;16.42;43.06
63399;BME280;49533;-34.520;150.798;2023-06-14T00:11:11;100154.16;;;16.49;43.32
63399;BME280;49533;-34.520;150.798;2023-06-14T00:13:38;100183.75;;;16.76;43.36
63399;BME280;49533;-34.520;150.798;2023-06-14T00:16:07;100155.63;;;16.63;42.93
63399;BME280;49533;-34.520;150.798;2023-06-14T00:18:34;100163.25;;;16.85;43.17
63399;BME280;49533;-34.520;150.798;2023-06-14T00:21:01;100181.78;;;16.92;43.03
63399;BME280;49533;-34.520;150.798;2023-06-14T00:23:28;100123.00;;;16.58;42.65
63399;BME280;49533;-34.520;150.798;2023-06-14T00:25:55;100159.34;;;16.86;42.72
63399;BME280;49533;-34.520;150.798;2023-06-14T00:28:23;100155.69;;;16.98;42.78
63399;BME280;49533;-34.520;150.798;2023-06-14T00:30:50;100142.44;;;16.84;42.62
63399;BME280;49533;-34.520;150.798;2023-06-14T00:33:17;100179.53;;;17.13;42.75
63399;BME280;49533;-34.520;150.798;2023-06-14T00:35:44;100155.41;;;17.03;42.80
63399;BME280;49533;-34.520;150.798;2023-06-14T00:38:11;100164.13;;;17.09;42.72
63399;BME280;49533;-34.520;150.798;2023-06-14T00:40:39;100116.94;;;16.84;42.72
63399;BME280;49533;-34.520;150.798;2023-06-14T00:43:06;100163.34;;;17.28;42.83
63399;BME280;49533;-34.520;150.798;2023-06-14T00:45:33;100158.22;;;17.26;42.77
63399;BME280;49533;-34.520;150.798;2023-06-14T00:48:02;100012.00;;;16.51;42.58
63399;BME280;49533;-34.520;150.798;2023-06-14T00:50:30;100160.41;;;17.36;42.40
63399;BME280;49533;-34.520;150.798;2023-06-14T00:53:00;100148.38;;;17.45;42.19
63399;BME280;49533;-34.520;150.798;2023-06-14T00:55:28;100142.47;;;17.43;42.32
63399;BME280;49533;-34.520;150.798;2023-06-14T00:57:56;100146.13;;;17.50;42.07
63399;BME280;49533;-34.520;150.798;2023-06-14T01:00:23;100107.78;;;17.34;41.95
63399;BME280;49533;-34.520;150.798;2023-06-14T01:02:50;100121.81;;;17.49;41.74
63399;BME280;49533;-34.520;150.798;2023-06-14T01:05:18;100083.72;;;17.28;41.50
63399;BME280;49533;-34.520;150.798;2023-06-14T01:08:10;100138.97;;;17.65;41.34
63399;BME280;49533;-34.520;150.798;2023-06-14T01:10:51;100138.25;;;17.68;41.39
63399;BME280;49533;-34.520;150.798;2023-06-14T01:13:24;100124.44;;;17.65;41.03
63399;BME280;49533;-34.520;150.798;2023-06-14T01:15:55;100124.75;;;17.59;40.98
63399;BME280;49533;-34.520;150.798;2023-06-14T01:18:23;100152.84;;;17.72;40.90
63399;BME280;49533;-34.520;150.798;2023-06-14T01:20:52;100142.28;;;17.74;40.62
63399;BME280;49533;-34.520;150.798;2023-06-14T01:23:22;100102.88;;;17.44;40.27
63399;BME280;49533;-34.520;150.798;2023-06-14T01:25:50;100136.06;;;17.77;40.89
63399;BME280;49533;-34.520;150.798;2023-06-14T01:28:22;100140.38;;;17.78;39.18
63399;BME280;49533;-34.520;150.798;2023-06-14T01:30:51;100084.25;;;17.33;39.46
63399;BME280;49533;-34.520;150.798;2023-06-14T01:33:21;100124.19;;;17.73;38.86
63399;BME280;49533;-34.520;150.798;2023-06-14T01:35:51;100083.88;;;17.58;39.33
63399;BME280;49533;-34.520;150.798;2023-06-14T01:38:23;100061.69;;;17.44;39.39
63399;BME280;49533;-34.520;150.798;2023-06-14T01:40:54;100111.63;;;17.72;39.67
63399;BME280;49533;-34.520;150.798;2023-06-14T01:43:23;100057.94;;;17.55;39.00
63399;BME280;49533;-34.520;150.798;2023-06-14T01:45:54;100088.91;;;17.75;39.10
63399;BME280;49533;-34.520;150.798;2023-06-14T01:48:22;100092.84;;;17.74;39.04
63399;BME280;49533;-34.520;150.798;2023-06-14T01:50:50;100093.63;;;17.75;39.41
63399;BME280;49533;-34.520;150.798;2023-06-14T01:53:18;100060.22;;;17.50;39.61
63399;BME280;49533;-34.520;150.798;2023-06-14T01:55:46;100080.09;;;17.66;39.46
63399;BME280;49533;-34.520;150.798;2023-06-14T01:58:15;100096.41;;;17.78;39.46
63399;BME280;49533;-34.520;150.798;2023-06-14T02:00:43;100110.16;;;17.78;39.74
63399;BME280;49533;-34.520;150.798;2023-06-14T02:03:11;100102.38;;;17.80;39.74
63399;BME280;49533;-34.520;150.798;2023-06-14T02:05:39;100103.59;;;17.83;39.53
63399;BME280;49533;-34.520;150.798;2023-06-14T02:08:07;100056.06;;;17.59;39.69
63399;BME280;49533;-34.520;150.798;2023-06-14T02:10:34;100074.94;;;17.84;39.51
63399;BME280;49533;-34.520;150.798;2023-06-14T02:13:02;100078.91;;;17.87;39.24
63399;BME280;49533;-34.520;150.798;2023-06-14T02:15:29;100097.81;;;17.88;39.58
63399;BME280;49533;-34.520;150.798;2023-06-14T02:18:02;100037.06;;;17.51;39.39
63399;BME280;49533;-34.520;150.798;2023-06-14T02:20:29;100054.28;;;17.71;39.35
63399;BME280;49533;-34.520;150.798;2023-06-14T02:22:57;100085.81;;;17.77;39.39
63399;BME280;49533;-34.520;150.798;2023-06-14T02:25:24;100109.16;;;17.87;39.44
63399;BME280;49533;-34.520;150.798;2023-06-14T02:27:54;100058.81;;;17.59;39.54
63399;BME280;49533;-34.520;150.798;2023-06-14T02:30:22;100112.41;;;17.92;39.20
63399;BME280;49533;-34.520;150.798;2023-06-14T02:32:49;100010.16;;;17.37;39.47
63399;BME280;49533;-34.520;150.798;2023-06-14T02:35:17;100068.47;;;17.73;39.55
63399;BME280;49533;-34.520;150.798;2023-06-14T02:37:45;100101.41;;;17.92;39.19
63399;BME280;49533;-34.520;150.798;2023-06-14T02:40:12;100100.59;;;17.92;39.27
63399;BME280;49533;-34.520;150.798;2023-06-14T02:42:39;100087.97;;;17.87;38.84
63399;BME280;49533;-34.520;150.798;2023-06-14T02:45:08;100085.44;;;17.78;38.76
63399;BME280;49533;-34.520;150.798;2023-06-14T02:47:35;100088.47;;;17.93;39.02
63399;BME280;49533;-34.520;150.798;2023-06-14T02:50:02;100090.03;;;17.94;39.06
63399;BME280;49533;-34.520;150.798;2023-06-14T02:52:29;100090.03;;;17.94;39.17
63399;BME280;49533;-34.520;150.798;2023-06-14T02:54:59;100112.03;;;17.94;39.09
63399;BME280;49533;-34.520;150.798;2023-06-14T02:57:26;100095.84;;;17.89;39.14
63399;BME280;49533;-34.520;150.798;2023-06-14T02:59:53;100082.06;;;17.85;38.99
63399;BME280;49533;-34.520;150.798;2023-06-14T03:02:21;100088.47;;;17.93;38.91
63399;BME280;49533;-34.520;150.798;2023-06-14T03:04:48;100093.97;;;17.93;38.85
63399;BME280;49533;-34.520;150.798;2023-06-14T03:07:15;100074.63;;;17.89;38.75
63399;BME280;49533;-34.520;150.798;2023-06-14T03:09:48;100084.53;;;17.94;38.55
63399;BME280;49533;-34.520;150.798;2023-06-14T03:12:15;100082.84;;;17.86;38.50
63399;BME280;49533;-34.520;150.798;2023-06-14T03:14:42;100073.53;;;17.94;38.84
63399;BME280;49533;-34.520;150.798;2023-06-14T03:17:12;100071.97;;;17.93;38.61
63399;BME280;49533;-34.520;150.798;2023-06-14T03:19:39;100091.44;;;17.84;38.77
63399;BME280;49533;-34.520;150.798;2023-06-14T03:22:07;100089.59;;;17.92;38.47
63399;BME280;49533;-34.520;150.798;2023-06-14T03:24:34;100078.25;;;17.93;38.12
63399;BME280;49533;-34.520;150.798;2023-06-14T03:27:03;99935.09;;;17.06;38.00
63399;BME280;49533;-34.520;150.798;2023-06-14T03:29:30;100077.81;;;17.91;38.19
63399;BME280;49533;-34.520;150.798;2023-06-14T03:32:02;100072.31;;;17.91;38.07
63399;BME280;49533;-34.520;150.798;2023-06-14T03:34:29;100026.59;;;17.56;37.99
63399;BME280;49533;-34.520;150.798;2023-06-14T03:36:57;100071.91;;;17.89;38.16
63399;BME280;49533;-34.520;150.798;2023-06-14T03:39:24;100035.31;;;17.62;38.14
63399;BME280;49533;-34.520;150.798;2023-06-14T03:41:51;99990.81;;;17.30;37.80
63399;BME280;49533;-34.520;150.798;2023-06-14T03:44:18;100039.63;;;17.63;38.02
63399;BME280;49533;-34.520;150.798;2023-06-14T03:46:46;100059.13;;;17.77;38.14
63399;BME280;49533;-34.520;150.798;2023-06-14T03:49:14;100069.88;;;17.86;37.64
63399;BME280;49533;-34.520;150.798;2023-06-14T03:51:43;100070.97;;;17.81;37.60
63399;BME280;49533;-34.520;150.798;2023-06-14T03:54:11;100089.19;;;17.90;37.49
63399;BME280;49533;-34.520;150.798;2023-06-14T03:56:38;100062.91;;;17.69;37.40
63399;BME280;49533;-34.520;150.798;2023-06-14T03:59:05;100082.84;;;17.86;37.78
63399;BME280;49533;-34.520;150.798;2023-06-14T04:01:32;100061.25;;;17.65;37.64
63399;BME280;49533;-34.520;150.798;2023-06-14T04:04:00;100030.97;;;17.61;37.60
63399;BME280;49533;-34.520;150.798;2023-06-14T04:06:27;100070.13;;;17.77;37.37
63399;BME280;49533;-34.520;150.798;2023-06-14T04:08:59;100084.41;;;17.87;37.60
63399;BME280;49533;-34.520;150.798;2023-06-14T04:11:28;100067.53;;;17.65;37.73
63399;BME280;49533;-34.520;150.798;2023-06-14T04:13:55;100095.78;;;17.85;37.84
63399;BME280;49533;-34.520;150.798;2023-06-14T04:16:23;100059.66;;;17.64;37.55
63399;BME280;49533;-34.520;150.798;2023-06-14T04:18:50;100094.63;;;17.86;36.95
63399;BME280;49533;-34.520;150.798;2023-06-14T04:21:19;100049.34;;;17.57;36.83
63399;BME280;49533;-34.520;150.798;2023-06-14T04:23:46;100076.28;;;17.71;37.21
63399;BME280;49533;-34.520;150.798;2023-06-14T04:26:13;100095.34;;;17.83;37.33
63399;BME280;49533;-34.520;150.798;2023-06-14T04:28:42;99950.16;;;16.93;37.33
63399;BME280;49533;-34.520;150.798;2023-06-14T04:31:11;100027.31;;;17.53;36.67
63399;BME280;49533;-34.520;150.798;2023-06-14T04:33:38;100086.22;;;17.79;37.19
63399;BME280;49533;-34.520;150.798;2023-06-14T04:36:10;100056.50;;;17.62;37.05
63399;BME280;49533;-34.520;150.798;2023-06-14T04:38:39;100097.38;;;17.86;37.06
63399;BME280;49533;-34.520;150.798;2023-06-14T04:41:18;100097.59;;;17.77;36.92
63399;BME280;49533;-34.520;150.798;2023-06-14T04:43:45;100027.53;;;17.22;36.91
63399;BME280;49533;-34.520;150.798;2023-06-14T04:46:15;100106.41;;;17.87;36.33
63399;BME280;49533;-34.520;150.798;2023-06-14T04:48:43;100120.13;;;17.87;36.42
63399;BME280;49533;-34.520;150.798;2023-06-14T04:51:12;100135.06;;;17.86;36.94
63399;BME280;49533;-34.520;150.798;2023-06-14T04:53:39;100007.22;;;17.26;36.94
63399;BME280;49533;-34.520;150.798;2023-06-14T04:56:06;100130.00;;;17.88;36.55
63399;BME280;49533;-34.520;150.798;2023-06-14T04:58:33;100123.63;;;17.84;36.75
63399;BME280;49533;-34.520;150.798;2023-06-14T05:01:00;100112.47;;;17.76;36.58
63399;BME280;49533;-34.520;150.798;2023-06-14T05:03:29;100114.59;;;17.83;36.67
63399;BME280;49533;-34.520;150.798;2023-06-14T05:05:56;100121.00;;;17.71;37.26
63399;BME280;49533;-34.520;150.798;2023-06-14T05:08:23;100106.78;;;17.66;37.32
63399;BME280;49533;-34.520;150.798;2023-06-14T05:10:51;100083.34;;;17.49;37.04
63399;BME280;49533;-34.520;150.798;2023-06-14T05:13:18;100131.31;;;17.74;36.90
63399;BME280;49533;-34.520;150.798;2023-06-14T05:15:45;100138.09;;;17.80;37.02
63399;BME280;49533;-34.520;150.798;2023-06-14T05:18:13;100083.13;;;17.38;37.17
63399;BME280;49533;-34.520;150.798;2023-06-14T05:20:41;100143.59;;;17.80;37.40
63399;BME280;49533;-34.520;150.798;2023-06-14T05:23:09;100096.56;;;17.43;37.21
63399;BME280;49533;-34.520;150.798;2023-06-14T05:25:43;100146.19;;;17.73;37.13
63399;BME280;49533;-34.520;150.798;2023-06-14T05:28:10;100124.53;;;17.49;37.59
63399;BME280;49533;-34.520;150.798;2023-06-14T05:30:39;100156.88;;;17.78;35.90
63399;BME280;49533;-34.520;150.798;2023-06-14T05:33:06;100170.59;;;17.78;35.44
63399;BME280;49533;-34.520;150.798;2023-06-14T05:35:34;100136.97;;;17.62;35.62
63399;BME280;49533;-34.520;150.798;2023-06-14T05:38:01;100132.75;;;17.68;35.60
63399;BME280;49533;-34.520;150.798;2023-06-14T05:40:28;100173.47;;;17.82;35.69
63399;BME280;49533;-34.520;150.798;2023-06-14T05:42:55;100167.72;;;17.91;35.26
63399;BME280;49533;-34.520;150.798;2023-06-14T05:45:22;100157.59;;;17.95;34.89
63399;BME280;49533;-34.520;150.798;2023-06-14T05:47:49;100121.75;;;17.68;35.09
63399;BME280;49533;-34.520;150.798;2023-06-14T05:50:18;100170.59;;;17.98;35.04
63399;BME280;49533;-34.520;150.798;2023-06-14T05:52:45;100168.28;;;18.00;36.05
63399;BME280;49533;-34.520;150.798;2023-06-14T05:55:12;100040.56;;;17.05;36.13
63399;BME280;49533;-34.520;150.798;2023-06-14T05:57:40;100183.56;;;17.97;36.57
63399;BME280;49533;-34.520;150.798;2023-06-14T06:00:08;100172.31;;;17.83;36.54
63399;BME280;49533;-34.520;150.798;2023-06-14T06:02:41;100138.97;;;17.65;35.90
63399;BME280;49533;-34.520;150.798;2023-06-14T06:05:11;100177.25;;;17.97;35.54
63399;BME280;49533;-34.520;150.798;2023-06-14T06:07:38;100208.31;;;18.20;35.35
63399;BME280;49533;-34.520;150.798;2023-06-14T06:10:07;100162.59;;;17.89;35.56
63399;BME280;49533;-34.520;150.798;2023-06-14T06:12:34;100167.44;;;17.96;35.53
63399;BME280;49533;-34.520;150.798;2023-06-14T06:15:01;100236.34;;;18.30;34.73
63399;BME280;49533;-34.520;150.798;2023-06-14T06:17:29;100216.28;;;18.25;35.15
63399;BME280;49533;-34.520;150.798;2023-06-14T06:19:56;100214.59;;;18.21;34.26
63399;BME280;49533;-34.520;150.798;2023-06-14T06:22:24;100209.47;;;18.19;34.86
63399;BME280;49533;-34.520;150.798;2023-06-14T06:24:51;100215.41;;;18.21;34.37
63399;BME280;49533;-34.520;150.798;2023-06-14T06:27:18;100152.72;;;17.85;34.23
63399;BME280;49533;-34.520;150.798;2023-06-14T06:29:46;100170.72;;;17.82;34.25
63399;BME280;49533;-34.520;150.798;2023-06-14T06:32:15;100184.78;;;18.00;34.33
63399;BME280;49533;-34.520;150.798;2023-06-14T06:34:42;100145.25;;;17.66;35.24
63399;BME280;49533;-34.520;150.798;2023-06-14T06:37:10;100174.41;;;17.90;35.54
63399;BME280;49533;-34.520;150.798;2023-06-14T06:39:37;100082.78;;;17.20;35.75
63399;BME280;49533;-34.520;150.798;2023-06-14T06:42:04;100212.69;;;18.02;35.88
63399;BME280;49533;-34.520;150.798;2023-06-14T06:44:33;100195.22;;;17.91;35.96
63399;BME280;49533;-34.520;150.798;2023-06-14T06:47:00;100222.53;;;18.03;35.76
63399;BME280;49533;-34.520;150.798;2023-06-14T06:49:28;100232.13;;;17.90;36.04
63399;BME280;49533;-34.520;150.798;2023-06-14T06:52:01;100194.13;;;17.76;36.36
63399;BME280;49533;-34.520;150.798;2023-06-14T06:54:29;100221.53;;;17.92;36.53
63399;BME280;49533;-34.520;150.798;2023-06-14T06:56:57;100213.56;;;17.87;36.75
63399;BME280;49533;-34.520;150.798;2023-06-14T06:59:24;100220.06;;;17.78;36.13
63399;BME280;49533;-34.520;150.798;2023-06-14T07:01:52;100234.69;;;18.02;36.62
63399;BME280;49533;-34.520;150.798;2023-06-14T07:04:19;100247.28;;;18.03;36.64
63399;BME280;49533;-34.520;150.798;2023-06-14T07:06:46;100215.47;;;17.83;36.19
63399;BME280;49533;-34.520;150.798;2023-06-14T07:09:14;100244.53;;;18.03;36.41
63399;BME280;49533;-34.520;150.798;2023-06-14T07:11:44;100232.69;;;17.79;36.67
63399;BME280;49533;-34.520;150.798;2023-06-14T07:14:12;100247.28;;;18.03;36.17
63399;BME280;49533;-34.520;150.798;2023-06-14T07:16:39;100253.56;;;18.03;36.05
63399;BME280;49533;-34.520;150.798;2023-06-14T07:19:07;100257.09;;;18.04;35.48
63399;BME280;49533;-34.520;150.798;2023-06-14T07:21:35;100199.13;;;17.51;35.79
63399;BME280;49533;-34.520;150.798;2023-06-14T07:24:06;100262.16;;;18.02;35.84
63399;BME280;49533;-34.520;150.798;2023-06-14T07:26:34;100231.06;;;17.78;35.54
63399;BME280;49533;-34.520;150.798;2023-06-14T07:29:02;100261.75;;;18.00;35.49
63399;BME280;49533;-34.520;150.798;2023-06-14T07:31:29;100272.75;;;18.00;35.94
63399;BME280;49533;-34.520;150.798;2023-06-14T07:33:56;100209.16;;;17.43;35.74
63399;BME280;49533;-34.520;150.798;2023-06-14T07:36:23;100278.94;;;17.97;35.61
63399;BME280;49533;-34.520;150.798;2023-06-14T07:38:51;100274.63;;;17.96;35.66
63399;BME280;49533;-34.520;150.798;2023-06-14T07:41:18;100276.94;;;17.94;35.62
63399;BME280;49533;-34.520;150.798;2023-06-14T07:43:45;100268.25;;;17.92;35.74
63399;BME280;49533;-34.520;150.798;2023-06-14T07:46:13;100274.84;;;17.87;35.78
63399;BME280;49533;-34.520;150.798;2023-06-14T07:48:40;100262.47;;;17.77;35.55
63399;BME280;49533;-34.520;150.798;2023-06-14T07:51:07;100275.94;;;17.83;35.90
63399;BME280;49533;-34.520;150.798;2023-06-14T07:53:34;100278.69;;;17.83;36.03
63399;BME280;49533;-34.520;150.798;2023-06-14T07:56:01;100281.00;;;17.80;35.86
63399;BME280;49533;-34.520;150.798;2023-06-14T07:58:29;100266.34;;;17.76;35.91
63399;BME280;49533;-34.520;150.798;2023-06-14T08:00:56;100278.50;;;17.75;35.80
63399;BME280;49533;-34.520;150.798;2023-06-14T08:03:23;100300.84;;;17.74;35.91
63399;BME280;49533;-34.520;150.798;2023-06-14T08:05:51;100147.06;;;16.80;35.97
63399;BME280;49533;-34.520;150.798;2023-06-14T08:08:18;100267.94;;;17.58;35.98
63399;BME280;49533;-34.520;150.798;2023-06-14T08:10:45;100277.13;;;17.66;36.05
63399;BME280;49533;-34.520;150.798;2023-06-14T08:13:12;100271.75;;;17.53;36.22
63399;BME280;49533;-34.520;150.798;2023-06-14T08:15:39;100254.09;;;17.35;36.18
63399;BME280;49533;-34.520;150.798;2023-06-14T08:18:07;100275.81;;;17.59;36.19
63399;BME280;49533;-34.520;150.798;2023-06-14T08:20:34;100292.22;;;17.56;36.51
63399;BME280;49533;-34.520;150.798;2023-06-14T08:23:03;100256.78;;;17.31;36.26
63399;BME280;49533;-34.520;150.798;2023-06-14T08:25:30;100254.22;;;17.23;36.64
63399;BME280;49533;-34.520;150.798;2023-06-14T08:27:59;100272.81;;;17.29;36.66
63399;BME280;49533;-34.520;150.798;2023-06-14T08:30:27;100278.75;;;17.31;36.67
63399;BME280;49533;-34.520;150.798;2023-06-14T08:32:54;100304.22;;;17.48;36.36
63399;BME280;49533;-34.520;150.798;2023-06-14T08:35:23;100313.63;;;17.47;36.59
63399;BME280;49533;-34.520;150.798;2023-06-14T08:37:50;100262.94;;;17.09;36.49
63399;BME280;49533;-34.520;150.798;2023-06-14T08:40:20;100304.16;;;17.44;36.49
63399;BME280;49533;-34.520;150.798;2023-06-14T08:42:52;100272.59;;;17.19;36.35
63399;BME280;49533;-34.520;150.798;2023-06-14T08:45:21;100310.72;;;17.39;36.41
63399;BME280;49533;-34.520;150.798;2023-06-14T08:47:51;100322.84;;;17.38;36.75
63399;BME280;49533;-34.520;150.798;2023-06-14T08:50:26;100317.38;;;17.38;36.64
63399;BME280;49533;-34.520;150.798;2023-06-14T08:52:58;100269.00;;;16.99;36.72
63399;BME280;49533;-34.520;150.798;2023-06-14T08:55:30;100317.53;;;17.30;36.73
63399;BME280;49533;-34.520;150.798;2023-06-14T08:57:59;100296.22;;;17.07;36.77
63399;BME280;49533;-34.520;150.798;2023-06-14T09:00:27;100311.81;;;17.19;36.97
63399;BME280;49533;-34.520;150.798;2023-06-14T09:02:54;100228.00;;;16.58;36.71
63399;BME280;49533;-34.520;150.798;2023-06-14T09:05:25;100312.97;;;17.02;37.02
63399;BME280;49533;-34.520;150.798;2023-06-14T09:07:54;100295.81;;;16.89;37.27
63399;BME280;49533;-34.520;150.798;2023-06-14T09:10:22;100345.47;;;17.16;37.17
63399;BME280;49533;-34.520;150.798;2023-06-14T09:12:52;100334.06;;;17.14;37.20
63399;BME280;49533;-34.520;150.798;2023-06-14T09:15:19;100332.81;;;17.11;37.10
63399;BME280;49533;-34.520;150.798;2023-06-14T09:17:46;100301.03;;;16.79;37.15
63399;BME280;49533;-34.520;150.798;2023-06-14T09:20:14;100317.25;;;16.84;37.20
63399;BME280;49533;-34.520;150.798;2023-06-14T09:22:45;100339.03;;;16.92;37.23
63399;BME280;49533;-34.520;150.798;2023-06-14T09:25:12;100323.22;;;16.73;37.30
63399;BME280;49533;-34.520;150.798;2023-06-14T09:27:41;100374.53;;;17.01;37.32
63399;BME280;49533;-34.520;150.798;2023-06-14T09:30:10;100379.22;;;17.01;37.67
63399;BME280;49533;-34.520;150.798;2023-06-14T09:32:39;100364.53;;;16.93;37.43
63399;BME280;49533;-34.520;150.798;2023-06-14T09:35:07;100403.47;;;16.99;37.46
63399;BME280;49533;-34.520;150.798;2023-06-14T09:37:35;100398.16;;;16.90;37.74
63399;BME280;49533;-34.520;150.798;2023-06-14T09:40:05;100400.97;;;16.93;37.41
63399;BME280;49533;-34.520;150.798;2023-06-14T09:42:33;100384.38;;;16.74;37.84
63399;BME280;49533;-34.520;150.798;2023-06-14T09:45:04;100379.34;;;16.76;37.72
63399;BME280;49533;-34.520;150.798;2023-06-14T09:47:32;100406.41;;;16.90;37.66
63399;BME280;49533;-34.520;150.798;2023-06-14T09:49:59;100376.56;;;16.60;37.80
63399;BME280;49533;-34.520;150.798;2023-06-14T09:52:27;100395.72;;;16.72;38.13
63399;BME280;49533;-34.520;150.798;2023-06-14T09:54:55;100413.97;;;16.81;37.88
63399;BME280;49533;-34.520;150.798;2023-06-14T09:57:27;100419.47;;;16.81;37.88
63399;BME280;49533;-34.520;150.798;2023-06-14T10:00:00;100406.09;;;16.79;37.96
63399;BME280;49533;-34.520;150.798;2023-06-14T10:02:36;100346.78;;;16.30;37.91
63399;BME280;49533;-34.520;150.798;2023-06-14T10:05:05;100384.47;;;16.62;37.69
63399;BME280;49533;-34.520;150.798;2023-06-14T10:07:42;100425.19;;;16.76;37.87
63399;BME280;49533;-34.520;150.798;2023-06-14T10:10:11;100393.19;;;16.51;37.71
63399;BME280;49533;-34.520;150.798;2023-06-14T10:12:39;100402.75;;;16.58;37.79
63399;BME280;49533;-34.520;150.798;2023-06-14T10:15:09;100290.03;;;15.75;37.77
63399;BME280;49533;-34.520;150.798;2023-06-14T10:17:46;100425.34;;;16.67;38.06
63399;BME280;49533;-34.520;150.798;2023-06-14T10:20:31;100406.16;;;16.39;38.22
63399;BME280;49533;-34.520;150.798;2023-06-14T10:23:07;100443.56;;;16.59;38.37
63399;BME280;49533;-34.520;150.798;2023-06-14T10:25:37;100399.94;;;16.26;38.27
63399;BME280;49533;-34.520;150.798;2023-06-14T10:28:20;100439.16;;;16.42;38.28
63399;BME280;49533;-34.520;150.798;2023-06-14T10:31:02;100473.16;;;16.53;38.14
63399;BME280;49533;-34.520;150.798;2023-06-14T10:33:31;100470.78;;;16.52;38.55
63399;BME280;49533;-34.520;150.798;2023-06-14T10:39:04;100416.16;;;16.19;38.18
63399;BME280;49533;-34.520;150.798;2023-06-14T10:41:35;100406.16;;;16.11;38.50
63399;BME280;49533;-34.520;150.798;2023-06-14T10:47:21;100477.22;;;16.44;38.73
63399;BME280;49533;-34.520;150.798;2023-06-14T10:49:53;100475.59;;;16.43;38.60
63399;BME280;49533;-34.520;150.798;2023-06-14T10:52:23;100480.28;;;16.42;38.72
63399;BME280;49533;-34.520;150.798;2023-06-14T10:55:09;100436.28;;;16.11;38.69
63399;BME280;49533;-34.520;150.798;2023-06-14T10:57:41;100475.06;;;16.37;38.82
63399;BME280;49533;-34.520;150.798;2023-06-14T11:00:10;100485.56;;;16.35;38.92
63399;BME280;49533;-34.520;150.798;2023-06-14T11:02:55;100478.81;;;16.33;38.70
63399;BME280;49533;-34.520;150.798;2023-06-14T11:05:27;100478.81;;;16.33;38.93
63399;BME280;49533;-34.520;150.798;2023-06-14T11:10:56;100480.69;;;16.28;38.76
63399;BME280;49533;-34.520;150.798;2023-06-14T11:13:26;100442.69;;;16.02;38.75
63399;BME280;49533;-34.520;150.798;2023-06-14T11:15:55;100420.03;;;15.77;39.05
63399;BME280;49533;-34.520;150.798;2023-06-14T11:18:24;100504.78;;;16.23;38.85
63399;BME280;49533;-34.520;150.798;2023-06-14T11:20:53;100494.75;;;16.15;38.87
63399;BME280;49533;-34.520;150.798;2023-06-14T11:23:21;100515.63;;;16.19;38.88
63399;BME280;49533;-34.520;150.798;2023-06-14T11:25:51;100525.81;;;16.19;39.01
63399;BME280;49533;-34.520;150.798;2023-06-14T11:28:18;100514.31;;;16.01;38.97
63399;BME280;49533;-34.520;150.798;2023-06-14T11:30:59;100529.47;;;16.11;39.09
63399;BME280;49533;-34.520;150.798;2023-06-14T11:33:26;100486.56;;;15.78;38.87
63399;BME280;49533;-34.520;150.798;2023-06-14T11:35:53;100511.56;;;15.89;38.96
63399;BME280;49533;-34.520;150.798;2023-06-14T11:38:21;100538.03;;;16.09;39.09
63399;BME280;49533;-34.520;150.798;2023-06-14T11:40:48;100530.28;;;15.99;38.93
63399;BME280;49533;-34.520;150.798;2023-06-14T11:43:15;100554.81;;;16.07;39.26
63399;BME280;49533;-34.520;150.798;2023-06-14T11:45:43;100518.28;;;15.79;39.19
63399;BME280;49533;-34.520;150.798;2023-06-14T11:48:14;100543.28;;;16.02;39.41
63399;BME280;49533;-34.520;150.798;2023-06-14T11:50:41;100549.13;;;16.00;39.39
63399;BME280;49533;-34.520;150.798;2023-06-14T11:53:08;100417.38;;;15.19;39.59
63399;BME280;49533;-34.520;150.798;2023-06-14T11:55:38;100531.91;;;15.88;39.39
63399;BME280;49533;-34.520;150.798;2023-06-14T11:58:07;100516.81;;;15.81;39.36
63399;BME280;49533;-34.520;150.798;2023-06-14T12:00:37;100517.59;;;15.82;39.25
63399;BME280;49533;-34.520;150.798;2023-06-14T12:03:04;100519.44;;;15.90;39.41
63399;BME280;49533;-34.520;150.798;2023-06-14T12:05:33;100519.88;;;15.92;39.34
63399;BME280;49533;-34.520;150.798;2023-06-14T12:08:02;100532.00;;;15.91;39.71
63399;BME280;49533;-34.520;150.798;2023-06-14T12:10:41;100493.75;;;15.70;39.32
63399;BME280;49533;-34.520;150.798;2023-06-14T12:13:09;100517.13;;;15.92;39.41
63399;BME280;49533;-34.520;150.798;2023-06-14T12:15:37;100526.50;;;15.91;39.41
63399;BME280;49533;-34.520;150.798;2023-06-14T12:18:07;100520.09;;;15.87;39.38
63399;BME280;49533;-34.520;150.798;2023-06-14T12:20:34;100518.06;;;15.84;39.42
63399;BME280;49533;-34.520;150.798;2023-06-14T12:23:04;100459.03;;;15.37;39.47
63399;BME280;49533;-34.520;150.798;2023-06-14T12:25:35;100526.75;;;15.86;39.45
63399;BME280;49533;-34.520;150.798;2023-06-14T12:28:06;100476.03;;;15.55;39.45
63399;BME280;49533;-34.520;150.798;2023-06-14T12:30:35;100523.53;;;15.84;39.68
63399;BME280;49533;-34.520;150.798;2023-06-14T12:33:04;100527.75;;;15.81;39.66
63399;BME280;49533;-34.520;150.798;2023-06-14T12:35:31;100526.97;;;15.81;39.50
63399;BME280;49533;-34.520;150.798;2023-06-14T12:37:59;100492.47;;;15.55;39.55